Time;durP1;ratioP1;P1;durP2;ratioP2;P2;SDS_P1;SDS_P2;PMS_P1;PMS_P2;Temp;Humidity;BMP_temperature;BMP_pressure;BME280_temperature;BME280_humidity;BME280_pressure;Samples;Min_cycle;Max_cycle;Signal;HPM_P1;HPM_P2
2024/01/19 00:00:36;;;;;;;61.50;30.90;;;;;;;-1.95;97.84;97493.58;435197;1257;107962;-38
2024/01/19 00:11:05;;;;;;;66.40;31.20;;;;;;;-1.95;97.75;97522.23;435115;1254;97884;-38
2024/01/19 00:21:12;;;;;;;65.60;30.20;;;;;;;-1.94;97.84;97553.21;435114;1256;109343;-39
2024/01/19 00:31:18;;;;;;;65.10;31.20;;;;;;;-1.98;97.45;97575.40;435184;1256;108639;-38
2024/01/19 00:41:26;;;;;;;73.20;32.50;;;;;;;-2.14;97.49;97609.77;435152;1256;97874;-37
2024/01/19 00:51:33;;;;;;;64.00;28.80;;;;;;;-2.35;97.28;97635.59;434844;1253;553389;-38
2024/01/19 01:01:40;;;;;;;47.80;25.90;;;;;;;-2.39;97.13;97663.89;435124;1253;108481;-37
2024/01/19 01:11:48;;;;;;;53.10;24.50;;;;;;;-2.30;97.04;97674.46;435066;1256;97883;-37
2024/01/19 01:21:56;;;;;;;50.60;24.50;;;;;;;-2.21;97.21;97675.08;435097;1254;109940;-39
2024/01/19 01:32:03;;;;;;;68.20;29.10;;;;;;;-2.17;97.05;97683.27;435204;1256;109378;-38
2024/01/19 01:42:10;;;;;;;68.80;27.80;;;;;;;-2.24;97.15;97688.80;435116;1256;96555;-38
2024/01/19 01:52:16;;;;;;;43.00;23.10;;;;;;;-2.25;96.84;97703.02;435091;1256;109869;-38
2024/01/19 02:02:23;;;;;;;45.20;22.10;;;;;;;-2.22;96.64;97720.30;435245;1256;106936;-38
2024/01/19 02:12:32;;;;;;;47.00;21.60;;;;;;;-2.21;96.77;97736.75;435057;1253;97864;-38
2024/01/19 02:22:40;;;;;;;44.80;22.00;;;;;;;-2.37;96.59;97747.90;435322;1256;109860;-38
2024/01/19 02:32:47;;;;;;;44.60;19.90;;;;;;;-2.52;96.60;97763.02;435035;1257;107798;-37
2024/01/19 02:42:54;;;;;;;30.50;16.10;;;;;;;-2.52;96.50;97768.10;435073;1254;98113;-38
2024/01/19 02:53:01;;;;;;;26.20;13.60;;;;;;;-2.55;96.37;97792.27;435940;1253;110505;-41
2024/01/19 03:03:06;;;;;;;40.30;17.20;;;;;;;-2.64;96.54;97808.83;435364;1253;108781;-38
2024/01/19 03:13:13;;;;;;;33.50;16.80;;;;;;;-2.71;96.63;97829.81;435406;1256;96661;-40
2024/01/19 03:23:20;;;;;;;20.20;9.50;;;;;;;-2.76;96.04;97845.64;435174;1253;110818;-39
2024/01/19 03:33:27;;;;;;;10.00;6.10;;;;;;;-2.78;95.75;97858.16;435183;1252;107770;-40
2024/01/19 03:43:34;;;;;;;19.20;9.40;;;;;;;-2.80;95.62;97868.32;435158;1254;97471;-39
2024/01/19 03:53:42;;;;;;;37.00;12.50;;;;;;;-2.85;95.63;97882.29;435249;1256;107344;-39
2024/01/19 04:03:48;;;;;;;36.20;16.60;;;;;;;-2.93;95.63;97905.40;435147;1253;108193;-38
2024/01/19 04:13:55;;;;;;;28.00;14.20;;;;;;;-2.93;95.66;97915.92;435515;1253;97864;-39
2024/01/19 04:34:09;;;;;;;26.10;13.20;;;;;;;-2.92;95.22;97924.48;435228;1255;107990;-38
2024/01/19 04:44:16;;;;;;;37.40;16.60;;;;;;;-2.99;95.06;97943.27;435331;1256;96622;-37
2024/01/19 04:54:23;;;;;;;44.20;17.70;;;;;;;-3.19;95.04;97953.78;435237;1256;110270;-37
2024/01/19 05:04:28;;;;;;;42.30;19.80;;;;;;;-3.42;94.98;97967.27;435075;1254;106543;-38
2024/01/19 05:14:35;;;;;;;39.30;20.70;;;;;;;-3.40;94.70;97989.24;435325;1253;97209;-39
2024/01/19 05:34:48;;;;;;;65.70;25.90;;;;;;;-3.24;94.93;98021.02;435288;1254;106663;-39
2024/01/19 05:44:55;;;;;;;57.10;22.70;;;;;;;-3.31;94.84;98046.08;435314;1256;96632;-37
2024/01/19 05:55:02;;;;;;;54.10;23.20;;;;;;;-3.48;94.87;98061.41;435361;1256;109495;-38
2024/01/19 06:05:10;;;;;;;41.20;17.30;;;;;;;-3.57;94.55;98064.94;435275;1253;107357;-38
2024/01/19 06:15:17;;;;;;;36.30;16.60;;;;;;;-3.62;94.30;98074.75;435178;1256;98129;-38
2024/01/19 06:25:24;;;;;;;69.70;27.40;;;;;;;-3.60;94.26;98098.35;435375;1253;109578;-39
2024/01/19 06:35:31;;;;;;;38.20;17.00;;;;;;;-3.76;94.14;98112.79;435271;1256;109442;-38
2024/01/19 06:45:39;;;;;;;37.70;17.10;;;;;;;-3.92;94.00;98119.08;435179;1256;97884;-38
2024/01/19 06:55:45;;;;;;;34.50;17.90;;;;;;;-4.05;93.98;98132.59;435234;1256;97482;-38
2024/01/19 07:05:52;;;;;;;32.80;13.80;;;;;;;-4.14;93.85;98142.52;435389;1256;110402;-38
2024/01/19 07:16:00;;;;;;;24.10;13.70;;;;;;;-4.19;93.72;98148.10;435239;1257;108572;-39
2024/01/19 07:26:07;;;;;;;51.20;27.10;;;;;;;-4.06;93.58;98159.84;435358;1252;97893;-40
2024/01/19 07:36:15;;;;;;;43.60;22.60;;;;;;;-3.75;93.55;98176.80;435225;1254;109439;-39
2024/01/19 07:46:22;;;;;;;65.50;29.90;;;;;;;-3.49;93.67;98193.01;435308;1256;106609;-38
2024/01/19 07:56:28;;;;;;;51.70;27.20;;;;;;;-3.12;93.92;98200.70;435177;1256;97853;-39
2024/01/19 08:06:35;;;;;;;54.70;26.00;;;;;;;-2.87;93.63;98208.13;435091;1256;110849;-39
2024/01/19 08:16:43;;;;;;;46.50;23.40;;;;;;;-2.22;94.11;98222.84;435262;1256;106871;-40
2024/01/19 08:26:50;;;;;;;48.00;23.00;;;;;;;-1.59;94.02;98234.08;435296;1256;97865;-39
2024/01/19 08:36:56;;;;;;;45.50;25.80;;;;;;;-0.44;94.08;98238.91;435199;1256;110408;-39
2024/01/19 08:47:04;;;;;;;27.50;14.30;;;;;;;-0.25;92.96;98232.09;435093;1256;107270;-37
2024/01/19 08:57:08;;;;;;;32.80;15.70;;;;;;;-0.95;91.79;98247.76;435219;1256;96629;-39
2024/01/19 09:07:15;;;;;;;34.20;18.10;;;;;;;-1.49;91.95;98260.64;435292;1256;96631;-39
2024/01/19 09:17:24;;;;;;;33.20;16.30;;;;;;;-1.56;92.18;98288.83;435208;1256;107218;-38
2024/01/19 09:27:31;;;;;;;27.10;15.90;;;;;;;-1.53;92.12;98313.98;435245;1256;96603;-38
2024/01/19 09:37:38;;;;;;;35.90;16.00;;;;;;;-1.13;92.36;98327.88;435236;1257;108792;-38
2024/01/19 09:47:53;;;;;;;44.80;21.40;;;;;;;-0.59;92.58;98338.65;435261;1256;107414;-38
2024/01/19 09:58:00;;;;;;;34.20;19.60;;;;;;;-0.16;92.48;98343.86;435358;1257;97999;-38
2024/01/19 10:08:09;;;;;;;29.80;15.30;;;;;;;-0.20;91.95;98348.47;435209;1254;97960;-39
2024/01/19 10:18:17;;;;;;;28.70;14.50;;;;;;;-0.22;91.64;98348.88;435391;1256;109513;-39
2024/01/19 10:28:34;;;;;;;28.10;13.80;;;;;;;-0.11;91.74;98352.50;435209;1256;108628;-38
2024/01/19 10:38:41;;;;;;;19.70;10.80;;;;;;;0.28;91.23;98344.85;435299;1256;97541;-39
2024/01/19 10:48:49;;;;;;;25.80;12.90;;;;;;;0.54;91.31;98348.81;435291;1254;110736;-40
2024/01/19 10:59:09;;;;;;;23.70;11.50;;;;;;;0.91;90.98;98349.58;435227;1256;106524;-39
2024/01/19 11:09:17;;;;;;;23.70;12.50;;;;;;;0.90;90.72;98349.45;435251;1256;97304;-40
2024/01/19 11:19:25;;;;;;;19.80;8.70;;;;;;;0.97;89.97;98349.71;435334;1256;97861;-38
2024/01/19 11:29:36;;;;;;;18.00;9.60;;;;;;;0.86;89.81;98358.91;435199;1256;110925;-39
2024/01/19 11:39:43;;;;;;;25.30;12.10;;;;;;;0.85;89.88;98362.49;435191;1256;107711;-40
2024/01/19 11:49:50;;;;;;;23.60;11.90;;;;;;;0.80;88.98;98370.22;435247;1254;97870;-39
2024/01/19 11:59:56;;;;;;;25.10;11.70;;;;;;;0.78;89.12;98378.00;435273;1257;97986;-39
2024/01/19 12:10:08;;;;;;;14.60;9.90;;;;;;;0.61;88.54;98381.23;435087;1256;107626;-39
2024/01/19 12:20:15;;;;;;;14.80;8.20;;;;;;;0.56;88.41;98391.28;435203;1257;96625;-39
2024/01/19 12:30:23;;;;;;;27.40;12.20;;;;;;;0.16;88.39;98391.58;435844;1257;106779;-38
2024/01/19 12:40:34;;;;;;;32.30;14.20;;;;;;;-0.06;88.47;98390.48;435165;1257;97939;-38
2024/01/19 12:50:40;;;;;;;30.40;14.40;;;;;;;-0.14;88.66;98395.49;434879;1266;484013;-39
2024/01/19 13:00:46;;;;;;;18.10;9.00;;;;;;;-0.28;88.11;98402.15;435248;1256;97147;-38
2024/01/19 13:11:04;;;;;;;24.40;12.60;;;;;;;-0.29;87.85;98407.44;435158;1255;107673;-40
2024/01/19 13:21:17;;;;;;;31.30;15.50;;;;;;;-0.25;88.18;98419.91;435294;1256;96638;-41
2024/01/19 13:41:27;;;;;;;43.60;22.80;;;;;;;-0.34;88.19;98430.48;435308;1257;96659;-38
2024/01/19 13:51:35;;;;;;;38.00;15.50;;;;;;;-0.45;87.96;98434.50;435340;1264;96944;-40
2024/01/19 14:11:47;;;;;;;22.10;7.70;;;;;;;-0.60;87.49;98449.24;435243;1254;107398;-39
2024/01/19 14:31:59;;;;;;;30.80;11.00;;;;;;;-0.96;87.32;98464.64;436907;1256;97915;-40
2024/01/19 14:42:05;;;;;;;27.50;13.70;;;;;;;-1.25;87.14;98471.20;436240;1257;110268;-40
2024/01/19 14:52:12;;;;;;;20.30;8.30;;;;;;;-1.45;86.92;98475.26;435384;1253;97380;-40
2024/01/19 15:02:18;;;;;;;19.00;8.50;;;;;;;-1.60;86.90;98483.58;435363;1254;97861;-39
2024/01/19 15:12:24;;;;;;;53.00;20.10;;;;;;;-1.80;87.17;98490.25;435457;1258;109542;-39
2024/01/19 15:22:32;;;;;;;55.00;20.20;;;;;;;-2.05;86.91;98498.98;435219;1257;107224;-40
2024/01/19 15:32:40;;;;;;;27.30;13.20;;;;;;;-2.32;87.05;98516.35;435212;1257;96933;-39
2024/01/19 15:42:47;;;;;;;41.50;18.70;;;;;;;-2.48;87.40;98528.33;435096;1257;97471;-39
2024/01/19 15:52:55;;;;;;;18.60;8.00;;;;;;;-2.55;87.25;98546.38;435294;1253;110410;-38
2024/01/19 16:03:02;;;;;;;22.30;8.70;;;;;;;-2.36;87.50;98564.55;435340;1258;107284;-39
2024/01/19 16:13:10;;;;;;;32.20;11.20;;;;;;;-2.08;87.50;98584.92;435688;1257;98151;-42
2024/01/19 16:23:17;;;;;;;27.50;11.50;;;;;;;-1.94;87.87;98596.84;436591;1257;108317;-39
2024/01/19 16:33:24;;;;;;;32.10;14.90;;;;;;;-1.88;87.88;98612.31;435473;1257;96647;-38
2024/01/19 16:43:31;;;;;;;33.40;14.00;;;;;;;-1.85;87.71;98625.67;436707;1257;97128;-39
2024/01/19 16:53:38;;;;;;;24.00;11.40;;;;;;;-1.74;87.44;98640.88;436571;1256;109640;-40
2024/01/19 17:13:50;;;;;;;50.90;16.70;;;;;;;-1.69;87.61;98661.98;435254;1256;96728;-38
2024/01/19 17:23:57;;;;;;;50.40;23.60;;;;;;;-1.75;87.90;98684.36;435182;1257;109493;-39
2024/01/19 17:34:07;;;;;;;19.50;10.10;;;;;;;-1.86;87.84;98699.08;435190;1254;107866;-39
2024/01/19 17:54:23;;;;;;;30.70;11.10;;;;;;;-1.79;87.58;98736.98;435364;1257;111661;-39
2024/01/19 18:04:29;;;;;;;32.00;14.80;;;;;;;-1.81;88.00;98750.47;435322;1257;107811;-38
2024/01/19 18:14:37;;;;;;;40.10;15.40;;;;;;;-1.91;88.10;98756.86;435279;1253;97871;-39
2024/01/19 18:24:44;;;;;;;30.60;13.60;;;;;;;-1.98;87.95;98769.66;435159;1257;110677;-38
2024/01/19 18:34:52;;;;;;;26.80;11.20;;;;;;;-2.04;87.72;98786.46;435664;1254;110813;-37
2024/01/19 18:44:59;;;;;;;21.70;9.30;;;;;;;-1.96;87.70;98804.38;436773;1254;96712;-38
2024/01/19 18:55:05;;;;;;;39.80;16.40;;;;;;;-1.88;87.82;98819.87;435203;1256;111736;-39
2024/01/19 19:05:13;;;;;;;64.90;23.50;;;;;;;-1.88;87.88;98836.95;435345;1256;106700;-38
2024/01/19 19:15:19;;;;;;;82.20;26.40;;;;;;;-1.96;87.71;98841.02;435225;1256;97906;-39
2024/01/19 19:25:26;;;;;;;55.10;21.90;;;;;;;-2.07;87.99;98844.33;436048;1257;109472;-39
2024/01/19 19:45:37;;;;;;;36.40;15.50;;;;;;;-1.99;87.99;98873.38;435314;1256;97856;-39
2024/01/19 19:55:42;;;;;;;39.30;16.00;;;;;;;-1.90;88.02;98880.36;435259;1256;109978;-39
2024/01/19 20:05:49;;;;;;;42.70;18.50;;;;;;;-1.90;88.30;98889.10;435391;1256;107997;-38
2024/01/19 20:26:09;;;;;;;25.50;12.20;;;;;;;-2.09;88.29;98930.55;436003;1256;97071;-37
2024/01/19 20:36:16;;;;;;;25.50;11.40;;;;;;;-2.15;88.49;98947.63;436828;1256;111003;-39
2024/01/19 20:46:22;;;;;;;32.30;14.50;;;;;;;-2.23;88.30;98947.65;435555;1259;107557;-41
2024/01/19 20:56:30;;;;;;;30.30;12.70;;;;;;;-2.16;88.29;98955.45;436390;1252;97886;-39
2024/01/19 21:06:36;;;;;;;53.40;16.90;;;;;;;-2.10;88.41;98968.95;436831;1256;110312;-38
2024/01/19 21:16:44;;;;;;;48.00;17.00;;;;;;;-2.13;88.59;98978.90;437996;1253;108360;-38
2024/01/19 21:26:51;;;;;;;26.40;13.20;;;;;;;-2.23;88.67;98980.66;435337;1254;97497;-37
2024/01/19 21:47:04;;;;;;;41.60;17.40;;;;;;;-2.27;88.97;98987.80;435666;1256;110722;-39
2024/01/19 21:57:11;;;;;;;26.80;13.60;;;;;;;-2.19;89.04;98999.83;436132;1254;108209;-39
2024/01/19 22:17:24;;;;;;;48.80;18.40;;;;;;;-2.15;89.14;99022.42;435774;1256;108104;-40
2024/01/19 22:27:32;;;;;;;44.30;16.90;;;;;;;-2.23;89.15;99026.20;435839;1256;97876;-38
2024/01/19 22:37:39;;;;;;;31.30;14.70;;;;;;;-2.20;89.36;99038.58;435746;1256;97800;-38
2024/01/19 22:57:52;;;;;;;42.10;17.80;;;;;;;-2.04;89.29;99051.83;435603;1253;106964;-39
2024/01/19 23:07:59;;;;;;;36.20;15.50;;;;;;;-2.11;89.58;99060.92;435210;1252;96574;-38
2024/01/19 23:18:07;;;;;;;33.60;14.80;;;;;;;-2.16;89.44;99063.41;435450;1256;110333;-37
2024/01/19 23:28:14;;;;;;;24.10;11.40;;;;;;;-2.22;89.33;99070.35;435158;1255;107174;-41
2024/01/19 23:38:20;;;;;;;33.10;11.90;;;;;;;-2.18;88.94;99074.70;435302;1254;97966;-39
2024/01/19 23:48:27;;;;;;;24.10;11.20;;;;;;;-2.16;89.40;99082.90;435084;1253;111796;-40
